Time;durP1;ratioP1;P1;durP2;ratioP2;P2;SDS_P1;SDS_P2;PMS_P1;PMS_P2;Temp;Humidity;BMP_temperature;BMP_pressure;BME280_temperature;BME280_humidity;BME280_pressure;Samples;Min_cycle;Max_cycle;Signal;HPM_P1;HPM_P2
2022/12/28 00:01:28;;;;;;;8.88;3.88;;;5.80;89.70;;;;;;5033223;28;20064;-48
2022/12/28 00:03:58;;;;;;;10.85;3.45;;;5.80;89.70;;;;;;5044287;28;20426;-46
2022/12/28 00:06:25;;;;;;;6.90;4.00;;;5.80;90.00;;;;;;5052172;28;20032;-50
2022/12/28 00:08:56;;;;;;;7.57;4.45;;;5.70;90.30;;;;;;5038488;28;20045;-56
2022/12/28 00:11:25;;;;;;;8.80;3.95;;;5.80;90.40;;;;;;5033271;28;20113;-58
2022/12/28 00:13:52;;;;;;;8.57;4.28;;;5.70;90.50;;;;;;5033326;28;20406;-60
2022/12/28 00:16:32;;;;;;;10.35;3.80;;;5.70;90.70;;;;;;5032978;28;20036;-63
2022/12/28 00:19:07;;;;;;;9.15;3.90;;;5.60;91.00;;;;;;5033446;28;20427;-65
2022/12/28 00:21:36;;;;;;;8.88;4.45;;;5.60;91.10;;;;;;5051981;28;20024;-64
2022/12/28 00:24:03;;;;;;;8.57;4.00;;;5.50;91.30;;;;;;5031785;28;20071;-64
2022/12/28 00:26:32;;;;;;;12.32;4.63;;;5.50;91.50;;;;;;5036523;28;20032;-63
2022/12/28 00:28:59;;;;;;;10.75;4.80;;;5.50;91.60;;;;;;5051788;28;20021;-64
2022/12/28 00:31:26;;;;;;;12.63;4.18;;;5.40;91.80;;;;;;5051327;28;20439;-63
2022/12/28 00:33:53;;;;;;;11.70;5.13;;;5.40;92.00;;;;;;5046934;28;20360;-63
2022/12/28 00:36:24;;;;;;;7.30;4.63;;;5.40;92.00;;;;;;5031978;28;20053;-63
2022/12/28 00:38:51;;;;;;;8.82;4.45;;;5.40;92.10;;;;;;5032332;28;20033;-63
2022/12/28 00:41:18;;;;;;;7.47;4.18;;;5.40;92.20;;;;;;5053051;28;20108;-63
2022/12/28 00:43:45;;;;;;;9.55;4.00;;;5.40;92.20;;;;;;5055693;28;20090;-63
2022/12/28 00:46:12;;;;;;;8.15;4.40;;;5.40;92.30;;;;;;5055073;28;20029;-63
2022/12/28 00:48:38;;;;;;;12.68;6.88;;;5.30;92.40;;;;;;5055132;28;20053;-63
2022/12/28 00:51:12;;;;;;;14.93;4.82;;;5.30;92.50;;;;;;5049607;28;20458;-64
2022/12/28 00:53:39;;;;;;;9.68;4.20;;;5.30;92.50;;;;;;5016379;28;20091;-64
2022/12/28 00:56:13;;;;;;;9.95;3.53;;;5.30;92.70;;;;;;5036240;28;20022;-64
2022/12/28 00:58:40;;;;;;;13.43;4.78;;;5.30;92.80;;;;;;5043631;28;20667;-64
2022/12/28 01:01:15;;;;;;;8.10;4.65;;;5.20;92.80;;;;;;5056664;28;20454;-64
2022/12/28 01:03:44;;;;;;;11.55;5.53;;;5.20;92.90;;;;;;5055695;28;20536;-64
2022/12/28 01:06:13;;;;;;;6.53;4.00;;;5.20;93.00;;;;;;5034925;28;20038;-64
2022/12/28 01:08:41;;;;;;;10.07;4.85;;;5.20;93.00;;;;;;5027978;28;20076;-64
2022/12/28 01:11:28;;;;;;;9.18;4.45;;;5.20;93.10;;;;;;5015544;28;20026;-64
2022/12/28 01:13:58;;;;;;;13.70;4.90;;;5.20;93.20;;;;;;5015713;28;20053;-64
2022/12/28 01:16:42;;;;;;;;;;;5.20;93.20;;;;;;5025628;28;20121;-64
2022/12/28 01:19:13;;;;;;;8.20;3.78;;;5.20;93.30;;;;;;5015949;28;19968;-64
2022/12/28 01:21:48;;;;;;;8.80;4.75;;;5.20;93.30;;;;;;5014718;28;20040;-64
2022/12/28 01:24:13;;;;;;;10.35;4.80;;;5.10;93.40;;;;;;5021242;28;20029;-64
2022/12/28 01:26:43;;;;;;;13.63;5.00;;;5.10;93.50;;;;;;5035886;28;20021;-64
2022/12/28 01:29:08;;;;;;;10.30;5.80;;;5.20;93.50;;;;;;5035598;28;20033;-63
2022/12/28 01:31:35;;;;;;;10.13;4.97;;;5.20;93.50;;;;;;5035208;28;20080;-64
2022/12/28 01:34:05;;;;;;;11.07;5.55;;;5.10;93.60;;;;;;5036022;28;20527;-63
2022/12/28 01:36:33;;;;;;;9.00;5.55;;;5.10;93.60;;;;;;5035976;28;20152;-63
2022/12/28 01:39:03;;;;;;;11.07;5.07;;;5.10;93.60;;;;;;5034272;28;20504;-63
2022/12/28 01:41:29;;;;;;;;;;;5.10;93.60;;;;;;5035186;28;20026;-62
2022/12/28 01:43:55;;;;;;;10.63;4.82;;;5.00;93.70;;;;;;5049206;28;19918;-61
2022/12/28 01:46:40;;;;;;;9.00;4.90;;;5.00;93.70;;;;;;5055918;28;20096;-61
2022/12/28 01:49:28;;;;;;;9.88;5.10;;;5.00;93.70;;;;;;5052993;28;20442;-63
2022/12/28 01:52:10;;;;;;;10.38;5.20;;;5.00;93.70;;;;;;5035416;28;20030;-63
2022/12/28 01:54:50;;;;;;;11.00;5.05;;;5.10;93.80;;;;;;5025578;28;20052;-62
2022/12/28 01:57:20;;;;;;;10.25;5.72;;;5.00;93.80;;;;;;5035424;28;20052;-60
2022/12/28 01:59:55;;;;;;;;;;;5.00;93.80;;;;;;5040501;28;20047;-57
2022/12/28 02:02:22;;;;;;;10.35;5.25;;;5.10;93.90;;;;;;5054385;28;19908;-59
2022/12/28 02:04:49;;;;;;;10.07;4.97;;;5.00;93.80;;;;;;5054288;28;20041;-59
2022/12/28 02:07:36;;;;;;;8.73;5.40;;;5.00;93.90;;;;;;5043833;28;20026;-60
2022/12/28 02:10:04;;;;;;;10.10;5.00;;;5.10;94.00;;;;;;5033510;28;20426;-59
2022/12/28 02:12:32;;;;;;;10.43;5.68;;;5.00;94.00;;;;;;5035386;28;20366;-59
2022/12/28 02:14:59;;;;;;;11.50;6.32;;;5.10;94.00;;;;;;5034274;28;20160;-59
2022/12/28 02:17:26;;;;;;;12.52;6.13;;;5.10;93.90;;;;;;5035114;28;20033;-58
2022/12/28 02:19:53;;;;;;;14.35;7.32;;;5.10;94.00;;;;;;5041204;28;20021;-59
2022/12/28 02:22:49;;;;;;;12.45;6.40;;;5.10;94.00;;;;;;5055129;28;20357;-58
2022/12/28 02:26:14;;;;;;;7.32;5.22;;;5.10;94.00;;;;;;5015244;28;20459;-58
2022/12/28 02:29:07;;;;;;;11.35;5.63;;;5.10;94.00;;;;;;5032714;28;20040;-57
2022/12/28 02:32:22;;;;;;;9.70;5.97;;;5.20;93.90;;;;;;5018094;28;20041;-57
2022/12/28 02:35:00;;;;;;;10.55;5.05;;;5.10;93.90;;;;;;4949763;28;20032;-58
2022/12/28 02:37:39;;;;;;;10.63;5.20;;;5.20;94.00;;;;;;5054800;28;20767;-59
2022/12/28 02:40:29;;;;;;;11.38;6.22;;;5.20;94.00;;;;;;5033502;28;20025;-57
2022/12/28 02:42:57;;;;;;;9.60;4.85;;;5.20;94.00;;;;;;5033319;28;20048;-59
2022/12/28 02:51:36;;;;;;;12.13;5.30;;;5.30;93.90;;;;;;5033414;28;20080;-64
2022/12/28 02:57:26;;;;;;;9.70;4.85;;;5.30;93.80;;;;;;5034133;28;20039;-63
2022/12/28 03:00:20;;;;;;;9.18;5.03;;;5.30;93.80;;;;;;5024194;28;20022;-64
2022/12/28 03:02:55;;;;;;;9.63;4.32;;;5.30;93.90;;;;;;5019545;28;20037;-63
2022/12/28 03:09:11;;;;;;;8.65;4.43;;;5.30;93.80;;;;;;5044095;28;20045;-61
2022/12/28 03:11:48;;;;;;;8.48;5.10;;;5.40;93.80;;;;;;5006846;28;20332;-61
2022/12/28 03:14:25;;;;;;;9.43;5.40;;;5.40;93.80;;;;;;5014581;28;20026;-61
2022/12/28 03:31:14;;;;;;;9.52;5.25;;;5.50;94.00;;;;;;5034059;28;20071;-63
2022/12/28 03:33:53;;;;;;;9.27;5.43;;;5.50;94.00;;;;;;5032905;28;20467;-63
2022/12/28 03:36:32;;;;;;;9.60;5.28;;;5.50;94.10;;;;;;5033643;28;20029;-63
2022/12/28 03:39:16;;;;;;;10.38;5.20;;;5.50;94.20;;;;;;5030059;28;20028;-63
2022/12/28 03:45:24;;;;;;;11.77;5.78;;;5.50;94.30;;;;;;5021970;28;20515;-62
2022/12/28 03:47:55;;;;;;;11.90;5.22;;;5.50;94.30;;;;;;5028677;28;20116;-64
2022/12/28 03:50:22;;;;;;;12.63;5.85;;;5.50;94.40;;;;;;5027678;28;20081;-64
2022/12/28 03:52:51;;;;;;;6.72;5.38;;;5.50;94.50;;;;;;5036424;28;20350;-64
2022/12/28 03:55:18;;;;;;;8.93;5.40;;;5.50;94.50;;;;;;5032641;28;20511;-63
2022/12/28 03:57:45;;;;;;;13.32;6.55;;;5.50;94.60;;;;;;5032639;28;20025;-63
2022/12/28 04:00:12;;;;;;;8.27;6.10;;;5.50;94.70;;;;;;5033318;28;20032;-62
2022/12/28 04:02:39;;;;;;;11.30;6.53;;;5.50;94.70;;;;;;5012583;28;20044;-61
2022/12/28 04:05:10;;;;;;;9.43;6.88;;;5.50;94.80;;;;;;5019303;28;20034;-61
2022/12/28 04:07:39;;;;;;;8.95;6.25;;;5.50;94.80;;;;;;5053122;28;20099;-61
2022/12/28 04:10:06;;;;;;;12.00;6.35;;;5.50;94.80;;;;;;5030871;28;20067;-61
2022/12/28 04:12:32;;;;;;;8.05;6.35;;;5.50;94.80;;;;;;5032100;28;20352;-63
2022/12/28 04:14:59;;;;;;;14.23;6.75;;;5.50;94.80;;;;;;5048080;28;20031;-64
2022/12/28 04:17:28;;;;;;;9.90;6.10;;;5.60;94.80;;;;;;5050861;28;20040;-64
2022/12/28 04:19:54;;;;;;;9.63;5.85;;;5.60;94.80;;;;;;5053062;28;20032;-62
2022/12/28 04:22:21;;;;;;;12.85;6.47;;;5.60;94.90;;;;;;5044546;28;20033;-61
2022/12/28 04:24:51;;;;;;;7.70;5.90;;;5.60;94.80;;;;;;5031605;28;20113;-62
2022/12/28 04:27:17;;;;;;;12.27;7.13;;;5.60;94.90;;;;;;5046486;28;20048;-63
2022/12/28 04:29:43;;;;;;;10.55;6.13;;;5.60;94.90;;;;;;5051919;28;20021;-64
2022/12/28 04:32:10;;;;;;;8.98;6.18;;;5.60;94.90;;;;;;5051932;28;20025;-64
2022/12/28 04:34:37;;;;;;;8.20;5.97;;;5.70;94.90;;;;;;5043810;28;20037;-63
2022/12/28 04:37:04;;;;;;;7.43;5.15;;;5.70;95.00;;;;;;5031717;28;20029;-62
2022/12/28 04:39:31;;;;;;;10.77;5.50;;;5.80;95.00;;;;;;5031949;28;20060;-62
2022/12/28 04:42:00;;;;;;;8.40;5.50;;;5.80;94.90;;;;;;5052998;28;20032;-62
2022/12/28 04:44:26;;;;;;;8.45;6.38;;;5.80;94.90;;;;;;5053001;28;20037;-61
2022/12/28 04:46:53;;;;;;;7.82;5.22;;;5.90;95.00;;;;;;5052867;28;20029;-61
2022/12/28 04:49:22;;;;;;;10.70;5.72;;;5.80;94.90;;;;;;5047010;28;20124;-63
2022/12/28 04:51:48;;;;;;;7.45;5.05;;;5.80;94.90;;;;;;5032895;28;20423;-61
2022/12/28 04:54:15;;;;;;;8.40;6.90;;;5.80;94.90;;;;;;5030840;28;20044;-61
2022/12/28 04:56:45;;;;;;;7.22;5.40;;;5.90;94.90;;;;;;5032471;28;20029;-60
2022/12/28 04:59:14;;;;;;;7.88;5.32;;;5.90;94.90;;;;;;5032651;28;20018;-60
2022/12/28 05:01:41;;;;;;;6.22;5.25;;;5.90;94.90;;;;;;5031296;28;20029;-61
2022/12/28 05:04:08;;;;;;;8.02;5.70;;;5.90;94.90;;;;;;5044502;28;20409;-64
2022/12/28 05:06:35;;;;;;;8.55;5.78;;;5.90;94.90;;;;;;5014573;28;20030;-62
2022/12/28 05:09:03;;;;;;;6.88;5.72;;;5.90;95.00;;;;;;5017598;28;20021;-62
2022/12/28 05:11:33;;;;;;;7.90;5.63;;;5.90;95.00;;;;;;5032144;28;20116;-62
2022/12/28 05:13:58;;;;;;;5.97;4.68;;;5.90;95.00;;;;;;5031858;28;20030;-62
2022/12/28 05:16:27;;;;;;;7.68;4.95;;;6.00;95.00;;;;;;5036688;28;20115;-62
2022/12/28 05:18:55;;;;;;;7.67;5.87;;;6.00;95.00;;;;;;5052337;28;20045;-62
2022/12/28 05:21:25;;;;;;;6.45;4.93;;;6.00;95.00;;;;;;5038566;28;20026;-61
2022/12/28 05:23:55;;;;;;;7.18;5.28;;;6.00;95.10;;;;;;5030676;28;20040;-62
2022/12/28 05:26:24;;;;;;;7.70;5.95;;;6.00;95.10;;;;;;5031856;28;20072;-62
2022/12/28 05:28:53;;;;;;;8.45;4.90;;;6.00;95.10;;;;;;5033712;28;20052;-61
2022/12/28 05:31:21;;;;;;;8.32;4.57;;;6.00;95.20;;;;;;5035014;28;20036;-60
2022/12/28 05:33:48;;;;;;;7.65;4.88;;;6.10;95.20;;;;;;5040641;28;20033;-60
2022/12/28 05:36:21;;;;;;;7.40;5.45;;;6.10;95.20;;;;;;5056096;28;20033;-62
2022/12/28 05:38:48;;;;;;;7.88;4.60;;;6.10;95.20;;;;;;5035569;28;20025;-63
2022/12/28 05:41:22;;;;;;;5.95;4.55;;;6.20;95.20;;;;;;5017132;28;20401;-62
2022/12/28 05:43:49;;;;;;;6.22;4.30;;;6.20;95.20;;;;;;5016137;28;20017;-65
2022/12/28 05:46:23;;;;;;;6.38;4.18;;;6.20;95.30;;;;;;5016011;28;20037;-65
2022/12/28 05:48:50;;;;;;;7.22;4.20;;;6.20;95.30;;;;;;5014866;28;20072;-65
2022/12/28 05:51:21;;;;;;;5.07;3.85;;;6.20;95.30;;;;;;5015999;28;20044;-63
2022/12/28 05:53:48;;;;;;;7.85;3.72;;;6.30;95.30;;;;;;5016911;28;20033;-62
2022/12/28 05:56:18;;;;;;;5.32;3.72;;;6.30;95.30;;;;;;5035755;28;20455;-64
2022/12/28 05:58:46;;;;;;;;;;;6.30;95.30;;;;;;5035754;28;20017;-65
2022/12/28 06:01:18;;;;;;;5.07;3.55;;;6.40;95.30;;;;;;5034665;28;19927;-64
2022/12/28 06:03:47;;;;;;;12.48;4.55;;;6.40;95.30;;;;;;5035007;28;20382;-63
2022/12/28 06:06:18;;;;;;;5.10;3.60;;;6.30;95.30;;;;;;5054476;28;20033;-63
2022/12/28 06:08:47;;;;;;;8.02;3.83;;;6.40;95.40;;;;;;5049434;28;20058;-63
2022/12/28 06:11:17;;;;;;;7.28;4.32;;;6.40;95.40;;;;;;5035433;28;20043;-62
2022/12/28 06:13:44;;;;;;;5.82;3.58;;;6.40;95.30;;;;;;5051516;28;20446;-62
2022/12/28 06:16:18;;;;;;;5.80;3.92;;;6.40;95.30;;;;;;5055187;28;20047;-62
2022/12/28 06:18:46;;;;;;;4.97;3.25;;;6.40;95.40;;;;;;5055084;28;20025;-62
2022/12/28 06:21:41;;;;;;;4.95;3.80;;;6.40;95.40;;;;;;5049293;28;20077;-62
2022/12/28 06:24:09;;;;;;;5.32;3.17;;;6.40;95.40;;;;;;5030349;28;20021;-62
2022/12/28 06:26:37;;;;;;;4.45;3.33;;;6.40;95.40;;;;;;5035531;28;20120;-62
2022/12/28 06:29:04;;;;;;;5.07;3.35;;;6.40;95.50;;;;;;5033973;28;20064;-61
2022/12/28 06:31:34;;;;;;;5.32;3.05;;;6.40;95.50;;;;;;5046221;28;20048;-62
2022/12/28 06:34:04;;;;;;;4.95;3.47;;;6.50;95.50;;;;;;5036976;28;20029;-62
2022/12/28 06:36:34;;;;;;;5.13;2.88;;;6.50;95.50;;;;;;5054031;28;20442;-62
2022/12/28 06:39:03;;;;;;;5.13;2.85;;;6.50;95.50;;;;;;5018097;28;20030;-62
2022/12/28 06:41:30;;;;;;;4.65;3.10;;;6.50;95.50;;;;;;5018836;28;20024;-62
2022/12/28 06:43:58;;;;;;;4.85;3.40;;;6.60;95.50;;;;;;5034484;28;20037;-61
2022/12/28 06:46:28;;;;;;;5.20;3.50;;;6.60;95.50;;;;;;5034715;28;20040;-61
2022/12/28 06:48:58;;;;;;;5.63;3.40;;;6.60;95.60;;;;;;5017312;28;20038;-61
2022/12/28 06:51:40;;;;;;;4.80;3.53;;;6.60;95.60;;;;;;5033681;28;20120;-61
2022/12/28 06:54:08;;;;;;;4.82;3.35;;;6.70;95.60;;;;;;5032120;28;20033;-61
2022/12/28 06:56:36;;;;;;;4.18;3.00;;;6.70;95.60;;;;;;5034748;28;20378;-62
2022/12/28 06:59:03;;;;;;;5.10;3.40;;;6.70;95.60;;;;;;5034484;28;20096;-63
2022/12/28 07:01:33;;;;;;;5.38;4.00;;;6.70;95.60;;;;;;5048578;28;20033;-63
2022/12/28 07:04:01;;;;;;;5.70;4.07;;;6.70;95.70;;;;;;5053466;28;20053;-63
2022/12/28 07:06:29;;;;;;;5.43;4.15;;;6.80;95.70;;;;;;5052396;28;20036;-63
2022/12/28 07:09:03;;;;;;;5.07;3.72;;;6.80;95.70;;;;;;5046595;28;20026;-63
2022/12/28 07:11:30;;;;;;;5.63;4.05;;;6.80;95.70;;;;;;5041017;28;20029;-62
2022/12/28 07:13:58;;;;;;;5.20;3.47;;;6.80;95.70;;;;;;5053244;28;20086;-61
2022/12/28 07:16:26;;;;;;;4.88;3.58;;;6.80;95.70;;;;;;5037605;28;20020;-62
2022/12/28 07:18:53;;;;;;;5.50;3.92;;;6.80;95.70;;;;;;5053680;28;20021;-61
2022/12/28 07:21:26;;;;;;;7.65;4.22;;;6.90;95.80;;;;;;5052342;28;20051;-61
2022/12/28 07:23:55;;;;;;;5.50;4.35;;;6.90;95.80;;;;;;5034126;28;20485;-62
2022/12/28 07:26:24;;;;;;;5.95;4.45;;;6.90;95.80;;;;;;5023206;28;20437;-62
2022/12/28 07:28:56;;;;;;;8.90;5.05;;;6.90;95.80;;;;;;5016489;28;20053;-64
2022/12/28 07:31:25;;;;;;;6.57;5.00;;;7.00;95.80;;;;;;5030678;28;20502;-64
2022/12/28 07:33:54;;;;;;;6.68;5.53;;;7.00;95.80;;;;;;5022583;28;20038;-63
2022/12/28 07:36:25;;;;;;;6.07;5.18;;;7.00;95.80;;;;;;5016892;28;20087;-63
2022/12/28 07:38:54;;;;;;;6.68;5.57;;;7.00;95.80;;;;;;5026142;28;20065;-63
2022/12/28 07:41:29;;;;;;;7.75;5.35;;;7.10;95.90;;;;;;5016228;28;20325;-63
2022/12/28 07:43:58;;;;;;;9.75;5.47;;;7.10;95.80;;;;;;5014831;28;20017;-63
2022/12/28 07:46:27;;;;;;;6.35;5.30;;;7.10;95.90;;;;;;5024454;28;20026;-64
2022/12/28 07:48:55;;;;;;;6.10;4.90;;;7.10;95.90;;;;;;5023965;28;20161;-63
2022/12/28 07:51:33;;;;;;;6.80;5.50;;;7.20;95.90;;;;;;5025630;28;20041;-63
2022/12/28 07:54:01;;;;;;;6.90;4.68;;;7.20;95.90;;;;;;5018232;28;20029;-63
2022/12/28 07:56:28;;;;;;;7.13;4.90;;;7.20;95.90;;;;;;5018466;28;20049;-62
2022/12/28 07:58:57;;;;;;;6.53;5.00;;;7.30;95.90;;;;;;5018224;28;20068;-62
2022/12/28 08:01:27;;;;;;;7.25;5.22;;;7.30;95.90;;;;;;5021537;28;20333;-63
2022/12/28 08:03:56;;;;;;;8.48;6.50;;;7.30;96.00;;;;;;5029252;28;20053;-63
2022/12/28 08:06:22;;;;;;;7.63;6.15;;;7.30;96.00;;;;;;5032714;28;20033;-63
2022/12/28 08:08:52;;;;;;;7.88;6.28;;;7.40;96.00;;;;;;5027305;28;20033;-61
2022/12/28 08:11:20;;;;;;;7.50;6.18;;;7.40;96.00;;;;;;5023727;28;20026;-62
2022/12/28 08:13:52;;;;;;;10.27;7.53;;;7.40;96.00;;;;;;5033005;28;20045;-62
2022/12/28 08:16:20;;;;;;;8.05;6.30;;;7.50;96.00;;;;;;5032152;28;20063;-61
2022/12/28 08:18:48;;;;;;;8.73;6.57;;;7.50;96.00;;;;;;5026854;28;20029;-61
2022/12/28 08:21:17;;;;;;;8.18;6.07;;;7.50;96.00;;;;;;5023119;28;20025;-61
2022/12/28 08:23:44;;;;;;;7.30;5.90;;;7.50;96.00;;;;;;5018616;28;20370;-61
2022/12/28 08:26:36;;;;;;;8.35;6.65;;;7.50;96.00;;;;;;5027228;28;20021;-60
2022/12/28 08:29:10;;;;;;;8.65;7.32;;;7.60;96.00;;;;;;5017925;28;20034;-60
2022/12/28 08:31:39;;;;;;;8.43;6.32;;;7.60;96.00;;;;;;5019655;28;20075;-60
2022/12/28 08:34:09;;;;;;;8.68;6.68;;;7.60;96.00;;;;;;5029453;28;20339;-61
2022/12/28 08:36:36;;;;;;;7.72;6.20;;;7.70;96.00;;;;;;5026818;28;20096;-64
2022/12/28 08:39:03;;;;;;;7.25;6.05;;;7.60;96.00;;;;;;5031099;28;20059;-63
2022/12/28 08:41:31;;;;;;;8.80;5.82;;;7.70;96.00;;;;;;5022382;28;20022;-65
2022/12/28 08:43:58;;;;;;;8.10;6.25;;;7.70;96.10;;;;;;5022879;28;20033;-65
2022/12/28 08:46:28;;;;;;;7.20;6.03;;;7.80;96.00;;;;;;5019138;28;20056;-63
2022/12/28 08:48:59;;;;;;;7.43;6.57;;;7.80;96.00;;;;;;5011412;28;20041;-60
2022/12/28 08:51:43;;;;;;;8.50;6.18;;;7.80;96.00;;;;;;5018725;28;20117;-60
2022/12/28 08:54:12;;;;;;;12.90;6.15;;;7.80;96.00;;;;;;5017444;28;20029;-60
2022/12/28 08:56:43;;;;;;;9.30;6.47;;;7.90;96.00;;;;;;5023611;28;20359;-63
2022/12/28 08:59:15;;;;;;;8.65;6.00;;;7.90;96.00;;;;;;5020006;28;20030;-62
2022/12/28 09:01:42;;;;;;;8.82;6.70;;;7.90;96.00;;;;;;5018787;28;20022;-64
2022/12/28 09:04:16;;;;;;;6.68;5.38;;;7.90;96.00;;;;;;5024401;28;20074;-62
2022/12/28 09:06:43;;;;;;;7.57;5.88;;;7.90;96.10;;;;;;5028304;28;20075;-61
2022/12/28 09:09:13;;;;;;;8.20;5.93;;;7.90;96.00;;;;;;5017857;28;20347;-61
2022/12/28 09:11:39;;;;;;;7.50;6.13;;;7.90;96.00;;;;;;5025513;28;20037;-65
2022/12/28 09:14:08;;;;;;;8.95;5.68;;;7.90;96.00;;;;;;5032924;28;20046;-64
2022/12/28 09:16:36;;;;;;;7.53;5.88;;;7.90;96.00;;;;;;5023355;28;20025;-64
2022/12/28 09:19:07;;;;;;;7.65;5.72;;;7.90;96.00;;;;;;5023582;28;20489;-62
2022/12/28 09:21:37;;;;;;;7.13;5.55;;;7.90;96.10;;;;;;5027474;28;20034;-62
2022/12/28 09:24:04;;;;;;;7.18;5.88;;;8.00;96.10;;;;;;5024977;28;20730;-63
2022/12/28 09:26:34;;;;;;;7.68;6.30;;;8.00;96.00;;;;;;5026478;28;20121;-61
2022/12/28 09:29:04;;;;;;;9.07;7.07;;;8.00;96.10;;;;;;5009376;28;20045;-60
2022/12/28 09:31:34;;;;;;;;;;;8.10;96.10;;;;;;5024503;28;20038;-59
2022/12/28 09:34:02;;;;;;;;;;;8.20;96.10;;;;;;5026301;28;19972;-58
2022/12/28 09:36:35;;;;;;;13.85;9.80;;;8.20;96.10;;;;;;5024937;28;19914;-58
2022/12/28 09:39:04;;;;;;;14.82;10.93;;;8.20;96.10;;;;;;5023974;28;20030;-58
2022/12/28 09:41:55;;;;;;;18.20;11.88;;;8.30;96.10;;;;;;5031176;28;20021;-57
2022/12/28 09:44:33;;;;;;;16.42;11.70;;;8.30;96.10;;;;;;5019163;28;20036;-61
2022/12/28 09:47:36;;;;;;;14.80;11.02;;;8.30;96.10;;;;;;5031138;28;20041;-63
2022/12/28 09:50:17;;;;;;;12.05;9.63;;;8.30;96.10;;;;;;5023457;28;20029;-63
2022/12/28 09:53:14;;;;;;;11.27;9.90;;;8.30;96.10;;;;;;5016539;28;20099;-63
2022/12/28 09:55:53;;;;;;;11.50;9.65;;;8.30;96.10;;;;;;5020458;28;20048;-63
2022/12/28 09:58:21;;;;;;;16.08;10.65;;;8.30;96.10;;;;;;5027252;28;20455;-62
2022/12/28 10:00:56;;;;;;;11.15;9.65;;;8.30;96.10;;;;;;5033289;28;20110;-61
2022/12/28 10:03:35;;;;;;;11.85;10.13;;;8.30;96.10;;;;;;5029607;28;20049;-62
2022/12/28 10:06:04;;;;;;;13.00;9.98;;;8.30;96.10;;;;;;5026628;28;20075;-64
2022/12/28 10:08:37;;;;;;;11.73;10.05;;;8.40;96.10;;;;;;5018093;28;20022;-63
2022/12/28 10:11:07;;;;;;;12.25;10.13;;;8.40;96.10;;;;;;5026406;28;20159;-64
2022/12/28 10:13:37;;;;;;;12.02;10.50;;;8.40;96.10;;;;;;5028099;28;20408;-65
2022/12/28 10:16:10;;;;;;;13.07;10.63;;;8.40;96.10;;;;;;5039013;28;20037;-64
2022/12/28 10:18:38;;;;;;;12.40;10.13;;;8.40;96.20;;;;;;5037781;28;20035;-64
2022/12/28 10:21:05;;;;;;;13.23;10.82;;;8.40;96.20;;;;;;5036530;28;20041;-63
2022/12/28 10:23:34;;;;;;;11.75;10.30;;;8.40;96.20;;;;;;5032057;28;20108;-63
2022/12/28 10:26:02;;;;;;;9.85;8.07;;;8.50;96.20;;;;;;5023315;28;20467;-62
2022/12/28 10:28:48;;;;;;;10.70;8.00;;;8.50;96.20;;;;;;5027495;28;20458;-63
2022/12/28 10:31:28;;;;;;;10.50;8.45;;;8.50;96.10;;;;;;5034137;28;20415;-63
2022/12/28 10:33:55;;;;;;;9.85;6.68;;;8.50;96.20;;;;;;5033832;28;20494;-62
2022/12/28 10:36:30;;;;;;;9.70;7.55;;;8.50;96.10;;;;;;5034179;28;20026;-62
2022/12/28 10:38:57;;;;;;;9.10;7.75;;;8.50;96.10;;;;;;5026109;28;20075;-61
2022/12/28 10:41:34;;;;;;;9.00;6.70;;;8.50;96.20;;;;;;5020211;28;20032;-61
2022/12/28 10:44:18;;;;;;;6.80;5.43;;;8.60;96.10;;;;;;5023461;28;20047;-61
2022/12/28 10:46:53;;;;;;;7.30;6.03;;;8.60;96.20;;;;;;5022195;28;20033;-63
2022/12/28 10:49:20;;;;;;;7.65;5.47;;;8.60;96.10;;;;;;5021596;28;20026;-62
2022/12/28 10:52:28;;;;;;;7.82;5.85;;;8.60;96.10;;;;;;5020658;28;20048;-61
2022/12/28 10:54:54;;;;;;;7.32;5.53;;;8.60;96.10;;;;;;5028590;28;20033;-61
2022/12/28 10:57:30;;;;;;;6.22;5.20;;;8.60;96.10;;;;;;5032963;28;20033;-63
2022/12/28 11:00:26;;;;;;;6.25;5.30;;;8.60;96.10;;;;;;5019550;28;20087;-61
2022/12/28 11:02:52;;;;;;;6.28;5.22;;;8.70;96.10;;;;;;5017360;28;20546;-60
2022/12/28 11:05:25;;;;;;;6.38;4.60;;;8.70;96.20;;;;;;5032899;28;20095;-59
2022/12/28 11:08:18;;;;;;;6.47;5.25;;;8.80;96.20;;;;;;5030450;28;20030;-59
2022/12/28 11:10:44;;;;;;;5.65;4.30;;;8.80;96.10;;;;;;5023002;28;20029;-59
2022/12/28 11:13:20;;;;;;;5.25;4.28;;;8.80;96.10;;;;;;5031327;28;20626;-59
2022/12/28 11:15:47;;;;;;;5.18;4.15;;;8.70;96.00;;;;;;5017610;28;20112;-61
2022/12/28 11:18:34;;;;;;;5.22;4.28;;;8.70;96.10;;;;;;5031526;28;20033;-62
2022/12/28 11:21:00;;;;;;;6.68;4.45;;;8.80;96.10;;;;;;5024541;28;20036;-61
2022/12/28 11:23:31;;;;;;;8.02;4.30;;;8.70;96.00;;;;;;5029694;28;20517;-60
2022/12/28 11:25:59;;;;;;;5.80;4.40;;;8.80;96.00;;;;;;5025142;28;20029;-60
2022/12/28 11:28:26;;;;;;;5.22;3.70;;;8.80;96.00;;;;;;5027093;28;20086;-59
2022/12/28 11:30:56;;;;;;;4.95;3.72;;;8.80;96.00;;;;;;5021579;28;20329;-58
2022/12/28 11:33:33;;;;;;;4.57;3.25;;;8.80;96.00;;;;;;5030175;28;20477;-59
2022/12/28 11:36:01;;;;;;;5.10;3.55;;;8.80;96.00;;;;;;5040223;28;20098;-60
2022/12/28 11:38:50;;;;;;;4.78;3.42;;;8.90;96.00;;;;;;5030294;28;20025;-61
2022/12/28 11:41:34;;;;;;;4.50;3.25;;;8.80;96.00;;;;;;5023257;28;20034;-64
2022/12/28 11:44:08;;;;;;;6.43;4.25;;;8.80;96.00;;;;;;5019560;28;20022;-63
2022/12/28 11:47:01;;;;;;;7.32;5.10;;;8.80;96.00;;;;;;5024785;28;20040;-64
2022/12/28 11:49:34;;;;;;;8.57;4.15;;;8.80;96.00;;;;;;5015254;28;20061;-63
2022/12/28 11:52:15;;;;;;;5.03;3.53;;;8.80;96.00;;;;;;5019903;28;20061;-63
2022/12/28 11:54:53;;;;;;;5.35;4.72;;;8.80;96.00;;;;;;5015847;28;20044;-62
2022/12/28 11:57:39;;;;;;;5.22;3.60;;;8.80;96.00;;;;;;5030928;28;20030;-61
2022/12/28 12:00:22;;;;;;;5.25;4.18;;;8.80;96.00;;;;;;5033283;28;20029;-62
2022/12/28 12:02:55;;;;;;;4.47;3.03;;;8.80;96.00;;;;;;5032627;28;20030;-61
2022/12/28 12:05:40;;;;;;;4.45;2.97;;;8.90;96.00;;;;;;5025649;28;20340;-61
2022/12/28 12:08:45;;;;;;;4.43;2.80;;;8.90;96.00;;;;;;5027029;28;20041;-61
2022/12/28 12:11:17;;;;;;;4.00;2.88;;;8.90;96.00;;;;;;5031038;28;20041;-60
2022/12/28 12:13:48;;;;;;;4.38;2.97;;;9.00;96.00;;;;;;5030262;28;20037;-60
2022/12/28 12:16:29;;;;;;;4.82;3.42;;;9.00;96.00;;;;;;5023322;28;20033;-61
2022/12/28 12:19:00;;;;;;;4.47;2.50;;;9.00;96.00;;;;;;5029239;28;20034;-61
2022/12/28 12:21:31;;;;;;;4.07;2.40;;;9.10;96.00;;;;;;5017677;28;20334;-60
2022/12/28 12:24:27;;;;;;;4.85;2.60;;;9.10;96.00;;;;;;5017494;28;20115;-60
2022/12/28 12:27:00;;;;;;;6.63;2.42;;;9.20;96.00;;;;;;5013692;28;20157;-58
2022/12/28 12:29:58;;;;;;;3.80;2.33;;;9.10;95.90;;;;;;5020507;28;20025;-59
2022/12/28 12:32:37;;;;;;;3.60;2.35;;;9.20;95.90;;;;;;5026723;28;20052;-58
2022/12/28 12:35:12;;;;;;;3.85;2.38;;;9.20;95.90;;;;;;5029713;28;20042;-56
2022/12/28 12:38:03;;;;;;;3.95;2.72;;;9.20;95.80;;;;;;5016629;28;20034;-57
2022/12/28 12:40:59;;;;;;;6.10;2.83;;;9.10;95.80;;;;;;5020004;28;20462;-58
2022/12/28 12:43:38;;;;;;;5.93;3.60;;;9.00;95.80;;;;;;5021254;28;20103;-58
2022/12/28 12:46:35;;;;;;;4.40;3.17;;;9.10;95.80;;;;;;5025155;28;20041;-58
2022/12/28 12:49:28;;;;;;;5.57;3.55;;;9.10;95.70;;;;;;5022501;28;20038;-58
2022/12/28 12:52:24;;;;;;;5.45;3.28;;;9.10;95.70;;;;;;5023263;28;20030;-58
2022/12/28 12:55:21;;;;;;;5.38;4.00;;;9.00;95.70;;;;;;5020129;28;20041;-58
2022/12/28 12:57:50;;;;;;;6.15;4.53;;;9.00;95.70;;;;;;5026601;28;20037;-58
2022/12/28 13:00:37;;;;;;;5.35;4.03;;;9.00;95.70;;;;;;5026400;28;20033;-58
2022/12/28 13:03:45;;;;;;;5.68;4.18;;;9.00;95.70;;;;;;5038858;28;20378;-58
2022/12/28 13:06:22;;;;;;;5.35;4.18;;;9.10;95.70;;;;;;5016194;28;20045;-58
2022/12/28 13:09:12;;;;;;;6.63;3.70;;;9.10;95.60;;;;;;5019057;28;20030;-54
2022/12/28 13:11:39;;;;;;;7.47;3.42;;;9.10;95.60;;;;;;4999538;28;20081;-59
2022/12/28 13:14:17;;;;;;;4.10;3.10;;;9.10;95.50;;;;;;5000861;28;20060;-59
2022/12/28 13:16:48;;;;;;;4.65;2.88;;;9.10;95.50;;;;;;5032253;28;20469;-60
2022/12/28 13:19:24;;;;;;;5.38;3.13;;;9.00;95.50;;;;;;5033541;28;20096;-58
2022/12/28 13:21:57;;;;;;;4.18;3.10;;;9.10;95.40;;;;;;5026454;28;20350;-58
2022/12/28 13:24:33;;;;;;;4.32;3.28;;;9.00;95.40;;;;;;5029060;28;20088;-57
2022/12/28 13:27:18;;;;;;;4.75;3.40;;;9.00;95.40;;;;;;5014016;28;20375;-61
2022/12/28 13:29:53;;;;;;;3.60;2.50;;;9.00;95.40;;;;;;5045423;28;20049;-63
2022/12/28 13:32:27;;;;;;;4.88;3.17;;;9.00;95.40;;;;;;5021271;28;20026;-62
2022/12/28 13:34:54;;;;;;;4.97;2.72;;;9.00;95.40;;;;;;5020431;28;20045;-62
2022/12/28 13:37:21;;;;;;;4.60;1.77;;;9.00;95.40;;;;;;5024504;28;20096;-62
2022/12/28 13:39:49;;;;;;;4.28;2.40;;;9.00;95.40;;;;;;5022075;28;20026;-62
2022/12/28 13:42:41;;;;;;;4.80;2.17;;;9.00;95.40;;;;;;5020025;28;20104;-62
2022/12/28 13:45:12;;;;;;;4.07;1.95;;;9.00;95.40;;;;;;5008571;28;20212;-62
2022/12/28 13:47:48;;;;;;;4.10;2.25;;;9.00;95.40;;;;;;5019763;28;20583;-61
2022/12/28 13:50:25;;;;;;;3.88;2.05;;;8.90;95.50;;;;;;5022917;28;20033;-61
2022/12/28 13:53:04;;;;;;;3.63;2.70;;;9.00;95.50;;;;;;5024353;28;20025;-61
2022/12/28 13:55:51;;;;;;;3.25;2.42;;;8.90;95.50;;;;;;5018462;28;20038;-61
2022/12/28 13:58:48;;;;;;;3.70;2.60;;;8.90;95.50;;;;;;5015383;28;20064;-61